Time;durP1;ratioP1;P1;durP2;ratioP2;P2;SDS_P1;SDS_P2;PMS_P1;PMS_P2;Temp;Humidity;BMP_temperature;BMP_pressure;BME280_temperature;BME280_humidity;BME280_pressure;Samples;Min_cycle;Max_cycle;Signal;HPM_P1;HPM_P2
2022/10/27 00:01:55;;;;;;;9.93;4.30;;;;;;;14.43;100.00;102204.22;7374092;19;20021;-70
2022/10/27 00:04:28;;;;;;;10.23;4.20;;;;;;;14.39;100.00;102208.53;7375788;19;20436;-69
2022/10/27 00:06:57;;;;;;;10.77;4.07;;;;;;;14.47;100.00;102203.44;7375072;19;20014;-70
2022/10/27 00:09:27;;;;;;;9.45;4.50;;;;;;;14.54;100.00;102196.53;7373039;19;20038;-69
2022/10/27 00:11:57;;;;;;;8.98;4.10;;;;;;;14.45;100.00;102205.16;7378306;19;20018;-71
2022/10/27 00:14:26;;;;;;;8.10;3.80;;;;;;;14.42;100.00;102204.22;7379552;19;20010;-69
2022/10/27 00:16:57;;;;;;;12.60;4.55;;;;;;;14.41;100.00;102203.28;7378596;19;20006;-69
2022/10/27 00:19:30;;;;;;;10.60;4.55;;;;;;;14.39;100.00;102215.56;7376983;19;20039;-69
2022/10/27 00:21:59;;;;;;;11.52;5.15;;;;;;;14.36;100.00;102216.38;7382204;19;20011;-70
2022/10/27 00:24:29;;;;;;;12.18;5.03;;;;;;;14.34;100.00;102207.56;7379878;19;20025;-69
2022/10/27 00:26:59;;;;;;;12.50;4.88;;;;;;;14.28;100.00;102209.19;7382292;19;20092;-69
2022/10/27 00:29:28;;;;;;;12.75;4.65;;;;;;;14.23;100.00;102214.38;7381004;19;20664;-69
2022/10/27 00:31:58;;;;;;;12.25;4.97;;;;;;;14.23;100.00;102213.47;7379443;19;20015;-69
2022/10/27 00:34:30;;;;;;;11.05;4.55;;;;;;;14.20;100.00;102216.94;7381866;19;20022;-69
2022/10/27 00:37:00;;;;;;;9.85;4.68;;;;;;;14.14;100.00;102229.13;7382899;19;20464;-69
2022/10/27 00:39:30;;;;;;;11.45;5.00;;;;;;;14.12;100.00;102226.44;7382429;19;20006;-69
2022/10/27 00:41:59;;;;;;;10.07;4.70;;;;;;;14.07;100.00;102214.91;7383619;19;20083;-70
2022/10/27 00:44:36;;;;;;;13.60;5.80;;;;;;;14.01;100.00;102230.59;7384508;19;20026;-69
2022/10/27 00:47:12;;;;;;;12.52;4.95;;;;;;;14.02;100.00;102235.03;7383210;19;20728;-69
2022/10/27 00:49:50;;;;;;;13.63;5.20;;;;;;;14.01;100.00;102231.50;7385230;19;20015;-69
2022/10/27 00:52:25;;;;;;;12.02;4.65;;;;;;;14.03;100.00;102232.41;7383312;19;20014;-69
2022/10/27 00:54:58;;;;;;;11.68;5.38;;;;;;;14.00;100.00;102232.34;7380716;19;20025;-70
2022/10/27 00:57:30;;;;;;;12.57;5.10;;;;;;;13.94;100.00;102226.94;7378814;19;20855;-69
2022/10/27 01:00:01;;;;;;;11.32;5.82;;;;;;;13.98;100.00;102234.06;7385010;19;20304;-69
2022/10/27 01:02:30;;;;;;;11.23;5.35;;;;;;;13.91;100.00;102226.88;7380899;19;20030;-69
2022/10/27 01:05:07;;;;;;;14.52;5.38;;;;;;;13.86;100.00;102230.28;7381306;19;20010;-69
2022/10/27 01:07:38;;;;;;;15.77;5.15;;;;;;;13.82;100.00;102237.22;7383023;19;20483;-72
2022/10/27 01:10:08;;;;;;;13.35;5.55;;;;;;;13.76;100.00;102231.81;7379638;19;20007;-72
2022/10/27 01:12:38;;;;;;;12.93;5.22;;;;;;;13.77;100.00;102227.44;7383547;19;20018;-72
2022/10/27 01:15:09;;;;;;;10.35;5.40;;;;;;;13.71;100.00;102230.81;7383896;19;20026;-72
2022/10/27 01:17:51;;;;;;;12.48;5.18;;;;;;;13.64;100.00;102226.28;7380787;19;20569;-72
2022/10/27 01:21:03;;;;;;;9.30;4.65;;;;;;;13.58;100.00;102232.28;7383012;19;20046;-72
2022/10/27 01:23:47;;;;;;;7.95;4.68;;;;;;;13.52;100.00;102226.03;7381292;19;20023;-72
2022/10/27 01:26:43;;;;;;;14.50;4.82;;;;;;;13.48;100.00;102227.69;7383869;19;20022;-70
2022/10/27 01:29:39;;;;;;;10.93;5.18;;;;;;;13.51;100.00;102226.88;7378821;19;20053;-69
2022/10/27 01:32:21;;;;;;;15.45;5.22;;;;;;;13.51;100.00;102229.50;7377654;19;20053;-69
2022/10/27 01:34:57;;;;;;;11.82;5.00;;;;;;;13.43;100.00;102236.34;7379793;19;20025;-70
2022/10/27 01:37:31;;;;;;;11.45;5.30;;;;;;;13.36;100.00;102230.03;7380870;19;20041;-69
2022/10/27 01:40:05;;;;;;;8.25;5.10;;;;;;;13.35;100.00;102236.16;7381746;19;20581;-73
2022/10/27 01:42:43;;;;;;;13.90;5.55;;;;;;;13.31;100.00;102237.84;7383436;19;20011;-72
2022/10/27 01:45:16;;;;;;;12.20;5.93;;;;;;;13.29;100.00;102226.38;7381006;19;20019;-72
2022/10/27 01:47:50;;;;;;;16.08;5.30;;;;;;;13.30;100.00;102228.16;7383935;19;20018;-72
2022/10/27 01:50:21;;;;;;;11.02;5.40;;;;;;;13.27;100.00;102227.19;7380305;19;20083;-72
2022/10/27 01:52:51;;;;;;;9.50;5.50;;;;;;;13.29;100.00;102229.00;7378954;19;20023;-72
2022/10/27 01:55:32;;;;;;;12.25;5.70;;;;;;;13.26;100.00;102226.28;7385398;19;20007;-72
2022/10/27 01:58:19;;;;;;;11.98;5.43;;;;;;;13.23;100.00;102220.94;7384221;19;20019;-72
2022/10/27 02:01:05;;;;;;;10.55;4.95;;;;;;;13.21;100.00;102212.13;7380802;19;20011;-72
2022/10/27 02:03:47;;;;;;;10.40;5.40;;;;;;;13.28;100.00;102213.16;7381579;19;20014;-71
2022/10/27 02:06:23;;;;;;;13.07;5.82;;;;;;;13.30;100.00;102214.97;7380275;19;20045;-71
2022/10/27 02:08:56;;;;;;;10.05;5.13;;;;;;;13.29;100.00;102207.91;7382012;19;20010;-71
2022/10/27 02:11:27;;;;;;;10.98;5.10;;;;;;;13.36;100.00;102209.84;7379445;19;20014;-72
2022/10/27 02:13:59;;;;;;;8.63;4.80;;;;;;;13.32;100.00;102200.09;7382508;19;20051;-73
2022/10/27 02:16:32;;;;;;;10.60;5.38;;;;;;;13.30;100.00;102203.53;7379532;19;20014;-73
2022/10/27 02:19:10;;;;;;;13.48;5.70;;;;;;;13.30;100.00;102201.78;7381056;19;20022;-69
2022/10/27 02:21:41;;;;;;;12.48;5.25;;;;;;;13.31;100.00;102200.06;7381985;19;20015;-73
2022/10/27 02:24:11;;;;;;;12.30;5.07;;;;;;;13.25;100.00;102195.53;7382460;19;20011;-73
2022/10/27 02:26:46;;;;;;;15.40;6.15;;;;;;;13.23;100.00;102196.34;7380099;19;20011;-73
2022/10/27 02:29:20;;;;;;;11.48;5.20;;;;;;;13.24;100.00;102196.38;7380660;19;20026;-73
2022/10/27 02:31:53;;;;;;;12.35;5.30;;;;;;;13.25;100.00;102195.53;7381039;19;20014;-73
2022/10/27 02:34:27;;;;;;;13.82;5.07;;;;;;;13.25;100.00;102194.63;7384548;19;20022;-73
2022/10/27 02:36:56;;;;;;;11.45;5.13;;;;;;;13.30;100.00;102191.25;7382048;19;20776;-73
2022/10/27 02:39:26;;;;;;;12.50;5.22;;;;;;;13.32;100.00;102183.38;7382562;19;20015;-73
2022/10/27 02:41:56;;;;;;;10.82;5.18;;;;;;;13.34;100.00;102179.94;7382270;19;20018;-73
2022/10/27 02:44:26;;;;;;;11.73;5.38;;;;;;;13.35;100.00;102176.44;7377871;19;20448;-73
2022/10/27 02:46:55;;;;;;;10.88;5.13;;;;;;;13.38;100.00;102168.63;7378298;19;20112;-72
2022/10/27 02:49:32;;;;;;;10.85;4.45;;;;;;;13.36;100.00;102182.59;7379004;19;20051;-72
2022/10/27 02:52:03;;;;;;;12.45;5.30;;;;;;;13.31;100.00;102174.59;7376303;19;20066;-73
2022/10/27 02:54:33;;;;;;;13.13;5.25;;;;;;;13.36;100.00;102182.59;7378494;19;20018;-73
2022/10/27 02:57:03;;;;;;;8.82;4.70;;;;;;;13.33;100.00;102177.25;7375018;19;20021;-72
2022/10/27 02:59:32;;;;;;;9.40;4.78;;;;;;;13.32;100.00;102175.50;7380244;19;20025;-72
2022/10/27 03:02:02;;;;;;;8.00;4.65;;;;;;;13.31;100.00;102177.22;7376949;19;20025;-72
2022/10/27 03:04:34;;;;;;;9.70;4.65;;;;;;;13.29;100.00;102172.78;7378474;19;20015;-73
2022/10/27 03:07:04;;;;;;;14.23;4.93;;;;;;;13.28;100.00;102174.53;7379265;19;20010;-73
2022/10/27 03:09:34;;;;;;;14.43;5.10;;;;;;;13.33;100.00;102164.09;7375975;19;20318;-73
2022/10/27 03:12:03;;;;;;;9.57;4.32;;;;;;;13.35;100.00;102172.91;7381447;19;20018;-72
2022/10/27 03:14:33;;;;;;;10.45;5.00;;;;;;;13.34;100.00;102164.13;7376406;19;20015;-72
2022/10/27 03:17:03;;;;;;;11.10;5.15;;;;;;;13.38;100.00;102176.53;7378153;19;20019;-73
2022/10/27 03:19:35;;;;;;;13.15;4.60;;;;;;;13.33;100.00;102177.25;7378885;19;20006;-72
2022/10/27 03:22:05;;;;;;;15.27;4.40;;;;;;;13.27;100.00;102177.13;7376420;19;20010;-72
2022/10/27 03:24:34;;;;;;;10.20;4.70;;;;;;;13.28;100.00;102177.16;7376224;19;20011;-73
2022/10/27 03:27:04;;;;;;;9.63;4.53;;;;;;;13.24;100.00;102177.94;7379125;19;20761;-73
2022/10/27 03:29:34;;;;;;;11.32;4.63;;;;;;;13.20;100.00;102176.09;7375574;19;20483;-73
2022/10/27 03:32:03;;;;;;;11.30;4.93;;;;;;;13.22;100.00;102165.59;7376629;19;20011;-73
2022/10/27 03:34:35;;;;;;;14.98;5.35;;;;;;;13.28;100.00;102166.63;7376785;19;20761;-72
2022/10/27 03:37:05;;;;;;;9.55;4.90;;;;;;;13.28;100.00;102173.63;7374541;19;20022;-72
2022/10/27 03:39:35;;;;;;;10.20;4.70;;;;;;;13.22;100.00;102168.22;7375419;19;20021;-73
2022/10/27 03:42:05;;;;;;;9.00;4.88;;;;;;;13.25;100.00;102177.09;7374387;19;20018;-72
2022/10/27 03:44:34;;;;;;;9.25;4.45;;;;;;;13.22;100.00;102179.66;7375143;19;20074;-72
2022/10/27 03:47:04;;;;;;;14.80;5.85;;;;;;;13.22;100.00;102184.91;7373265;19;20265;-72
2022/10/27 03:49:36;;;;;;;14.45;5.10;;;;;;;13.20;100.00;102184.00;7374158;19;20031;-73
2022/10/27 03:52:06;;;;;;;12.52;5.35;;;;;;;13.19;100.00;102189.22;7373091;19;20040;-72
2022/10/27 03:54:36;;;;;;;10.52;4.75;;;;;;;13.20;100.00;102191.91;7376034;19;20018;-73
2022/10/27 03:57:05;;;;;;;13.88;5.38;;;;;;;13.17;100.00;102194.47;7375670;19;20026;-72
2022/10/27 03:59:35;;;;;;;12.52;4.75;;;;;;;13.17;100.00;102205.00;7375052;19;20507;-72
2022/10/27 04:02:05;;;;;;;12.13;5.00;;;;;;;13.18;100.00;102193.59;7378180;19;20026;-72
2022/10/27 04:04:38;;;;;;;11.13;4.95;;;;;;;13.22;100.00;102195.47;7380477;19;20118;-72
2022/10/27 04:07:08;;;;;;;16.42;5.70;;;;;;;13.16;100.00;102194.38;7380730;19;20018;-73
2022/10/27 04:09:37;;;;;;;10.73;4.90;;;;;;;13.17;100.00;102207.63;7379674;19;20034;-72
2022/10/27 04:12:08;;;;;;;11.68;5.18;;;;;;;13.15;100.00;102204.03;7374879;19;20018;-72
2022/10/27 04:14:37;;;;;;;9.10;4.28;;;;;;;13.15;100.00;102214.56;7377411;19;20606;-72
2022/10/27 04:17:07;;;;;;;12.18;5.40;;;;;;;13.16;100.00;102204.91;7374088;19;20014;-72
2022/10/27 04:19:39;;;;;;;11.98;6.03;;;;;;;13.18;100.00;102206.78;7373290;19;20022;-72
2022/10/27 04:22:09;;;;;;;10.98;4.60;;;;;;;13.21;100.00;102204.22;7374300;19;20098;-72
2022/10/27 04:24:39;;;;;;;14.35;5.07;;;;;;;13.25;100.00;102203.44;7370918;19;20026;-72
2022/10/27 04:27:09;;;;;;;15.60;5.45;;;;;;;13.29;100.00;102202.66;7373350;19;20010;-72
2022/10/27 04:29:38;;;;;;;10.55;5.18;;;;;;;13.29;100.00;102205.28;7369244;19;20558;-72
2022/10/27 04:32:08;;;;;;;9.05;4.88;;;;;;;13.30;100.00;102199.16;7372590;19;20022;-72
2022/10/27 04:34:41;;;;;;;10.15;4.55;;;;;;;13.34;100.00;102205.41;7372918;19;20021;-72
2022/10/27 04:37:10;;;;;;;10.27;4.68;;;;;;;13.33;100.00;102214.16;7373830;19;20027;-72
2022/10/27 04:39:40;;;;;;;14.50;5.20;;;;;;;13.31;100.00;102206.22;7372302;19;20025;-72
2022/10/27 04:42:09;;;;;;;11.93;4.70;;;;;;;13.29;100.00;102204.41;7375556;19;20365;-72
2022/10/27 04:44:39;;;;;;;11.48;4.82;;;;;;;13.26;100.00;102205.22;7374310;19;20027;-72
2022/10/27 04:47:09;;;;;;;10.20;4.47;;;;;;;13.27;100.00;102200.84;7375037;19;20026;-72
2022/10/27 04:49:41;;;;;;;10.35;4.35;;;;;;;13.25;100.00;102192.91;7371562;19;20047;-72
2022/10/27 04:52:10;;;;;;;12.85;4.65;;;;;;;13.25;100.00;102187.63;7372773;19;20010;-72
2022/10/27 04:54:40;;;;;;;8.55;4.22;;;;;;;13.28;100.00;102198.25;7370397;19;20488;-72
2022/10/27 04:57:10;;;;;;;12.38;4.28;;;;;;;13.36;100.00;102195.78;7370906;19;20019;-72
2022/10/27 04:59:39;;;;;;;11.02;5.22;;;;;;;13.36;100.00;102194.03;7375381;19;20026;-72
2022/10/27 05:02:09;;;;;;;11.88;4.55;;;;;;;13.34;100.00;102194.84;7371124;19;20018;-72
2022/10/27 05:04:41;;;;;;;12.35;5.38;;;;;;;13.31;100.00;102193.03;7371260;19;20022;-72
2022/10/27 05:07:11;;;;;;;10.27;4.40;;;;;;;13.34;100.00;102189.59;7370330;19;20011;-72
2022/10/27 05:09:41;;;;;;;9.23;5.03;;;;;;;13.37;100.00;102189.66;7380830;19;20014;-71
2022/10/27 05:12:11;;;;;;;7.03;3.80;;;;;;;13.47;100.00;102182.84;7378466;19;20011;-72
2022/10/27 05:14:40;;;;;;;10.55;4.40;;;;;;;13.48;100.00;102174.97;7377475;19;20014;-72
2022/10/27 05:17:10;;;;;;;8.57;3.90;;;;;;;13.48;100.00;102182.00;7380273;19;20026;-72
2022/10/27 05:19:49;;;;;;;11.05;4.43;;;;;;;13.50;100.00;102183.81;7380247;19;20053;-72
2022/10/27 05:22:19;;;;;;;6.97;3.80;;;;;;;13.49;100.00;102175.88;7380835;19;20078;-72
2022/10/27 05:24:49;;;;;;;10.32;4.18;;;;;;;13.48;100.00;102171.47;7377464;19;20026;-72
2022/10/27 05:27:18;;;;;;;9.98;4.50;;;;;;;13.54;100.00;102167.19;7378511;19;20032;-72
2022/10/27 05:29:48;;;;;;;7.93;3.92;;;;;;;13.53;100.00;102181.22;7378826;19;20515;-72
2022/10/27 05:32:18;;;;;;;8.52;3.40;;;;;;;13.50;100.00;102175.91;7380370;19;20019;-72
2022/10/27 05:34:50;;;;;;;9.90;3.75;;;;;;;13.48;100.00;102160.91;7377394;19;20007;-72
2022/10/27 05:37:22;;;;;;;8.95;3.28;;;;;;;13.51;100.00;102166.25;7379503;19;20022;-72
2022/10/27 05:39:52;;;;;;;7.78;3.17;;;;;;;13.49;100.00;102170.59;7378656;19;20031;-72
2022/10/27 05:42:22;;;;;;;8.20;3.88;;;;;;;13.49;100.00;102163.59;7378306;19;20138;-72
2022/10/27 05:44:52;;;;;;;7.43;3.03;;;;;;;13.50;100.00;102164.47;7379204;19;20018;-72
2022/10/27 05:47:22;;;;;;;7.85;3.10;;;;;;;13.53;100.00;102164.50;7377899;19;20014;-72
2022/10/27 05:49:54;;;;;;;5.45;3.22;;;;;;;13.59;100.00;102154.09;7378986;19;20019;-71
2022/10/27 05:52:24;;;;;;;8.05;3.50;;;;;;;13.58;100.00;102160.22;7379640;19;20015;-72
2022/10/27 05:54:54;;;;;;;7.82;3.15;;;;;;;13.58;100.00;102154.97;7378128;19;20019;-72
2022/10/27 05:57:24;;;;;;;6.97;3.47;;;;;;;13.58;100.00;102147.06;7377371;19;20018;-72
2022/10/27 05:59:54;;;;;;;12.68;4.05;;;;;;;13.58;100.00;102140.03;7380802;19;20440;-72
2022/10/27 06:02:24;;;;;;;9.48;3.63;;;;;;;13.59;100.00;102144.44;7381075;19;20018;-72
2022/10/27 06:04:57;;;;;;;9.40;3.67;;;;;;;13.58;100.00;102142.66;7378105;19;20440;-72
2022/10/27 06:07:26;;;;;;;8.88;3.30;;;;;;;13.51;100.00;102143.44;7378588;19;20375;-72
2022/10/27 06:09:56;;;;;;;8.43;3.38;;;;;;;13.49;100.00;102141.59;7379033;19;20018;-72
2022/10/27 06:12:26;;;;;;;7.32;3.50;;;;;;;13.43;100.00;102144.09;7378483;19;20022;-72
2022/10/27 06:14:55;;;;;;;6.72;2.90;;;;;;;13.43;100.00;102142.38;7378264;19;20014;-72
2022/10/27 06:17:25;;;;;;;10.32;3.92;;;;;;;13.39;100.00;102141.41;7379748;19;20098;-72
2022/10/27 06:19:57;;;;;;;8.65;3.67;;;;;;;13.47;100.00;102144.22;7379331;19;20014;-71
2022/10/27 06:22:27;;;;;;;9.40;3.35;;;;;;;13.49;100.00;102131.97;7379828;19;20011;-72
2022/10/27 06:24:57;;;;;;;7.32;3.30;;;;;;;13.43;100.00;102129.19;7379378;19;20014;-71
2022/10/27 06:27:27;;;;;;;9.88;3.50;;;;;;;13.39;100.00;102125.59;7376274;19;20014;-72
2022/10/27 06:29:56;;;;;;;6.85;3.40;;;;;;;13.41;100.00;102128.25;7375933;19;20007;-72
2022/10/27 06:32:26;;;;;;;9.40;3.50;;;;;;;13.37;100.00;102123.78;7374496;19;20553;-72
2022/10/27 06:34:58;;;;;;;7.20;3.35;;;;;;;13.36;100.00;102120.25;7377406;19;20011;-70
2022/10/27 06:37:28;;;;;;;8.38;3.60;;;;;;;13.31;100.00;102116.63;7377469;19;20014;-70
2022/10/27 06:39:58;;;;;;;10.38;4.38;;;;;;;13.34;100.00;102119.34;7377069;19;20086;-70
2022/10/27 06:42:27;;;;;;;11.70;3.40;;;;;;;13.33;100.00;102114.03;7380172;19;20010;-72
2022/10/27 06:45:07;;;;;;;7.40;3.63;;;;;;;13.25;100.00;102116.50;7379372;19;20014;-70
2022/10/27 06:47:37;;;;;;;9.25;3.67;;;;;;;13.20;100.00;102114.59;7379203;19;20014;-70
2022/10/27 06:50:10;;;;;;;8.45;3.53;;;;;;;13.20;100.00;102104.06;7375176;19;20010;-70
2022/10/27 06:52:40;;;;;;;11.65;4.05;;;;;;;13.17;100.00;102109.28;7373776;19;20018;-70
2022/10/27 06:55:11;;;;;;;10.27;3.28;;;;;;;13.15;100.00;102125.00;7376499;19;20011;-70
2022/10/27 06:57:42;;;;;;;8.80;3.47;;;;;;;13.22;100.00;102126.97;7375467;19;20018;-69
2022/10/27 07:00:13;;;;;;;8.32;4.32;;;;;;;13.23;100.00;102125.22;7373512;19;20033;-70
2022/10/27 07:02:43;;;;;;;13.80;4.18;;;;;;;13.23;100.00;102128.75;7373014;19;20025;-70
2022/10/27 07:05:21;;;;;;;10.25;3.70;;;;;;;13.18;100.00;102122.47;7378385;19;20025;-69
2022/10/27 07:07:52;;;;;;;9.32;3.63;;;;;;;13.18;100.00;102119.84;7374751;19;20014;-69
2022/10/27 07:10:28;;;;;;;9.18;3.22;;;;;;;13.17;100.00;102119.81;7369867;19;20026;-71
2022/10/27 07:13:00;;;;;;;7.68;3.67;;;;;;;13.20;100.00;102120.78;7374861;19;20020;-70
2022/10/27 07:15:32;;;;;;;9.20;3.78;;;;;;;13.19;100.00;102108.44;7373914;19;20090;-70
2022/10/27 07:18:05;;;;;;;11.15;3.55;;;;;;;13.18;100.00;102108.41;7372955;19;20013;-70
2022/10/27 07:20:38;;;;;;;7.88;3.38;;;;;;;13.18;100.00;102114.56;7372191;19;20021;-70
2022/10/27 07:23:09;;;;;;;10.88;3.67;;;;;;;13.23;100.00;102120.84;7375719;19;20025;-70
2022/10/27 07:25:40;;;;;;;8.00;3.72;;;;;;;13.21;100.00;102121.66;7375112;19;20014;-70
2022/10/27 07:28:10;;;;;;;10.38;3.30;;;;;;;13.22;100.00;102126.97;7373431;19;20007;-70
2022/10/27 07:30:43;;;;;;;5.82;3.20;;;;;;;13.25;100.00;102121.75;7373730;19;20010;-70
2022/10/27 07:33:13;;;;;;;8.63;3.70;;;;;;;13.36;100.00;102124.63;7372615;19;20011;-70
2022/10/27 07:35:50;;;;;;;7.90;3.38;;;;;;;13.40;100.00;102127.38;7370995;19;20283;-70
2022/10/27 07:38:20;;;;;;;9.88;3.60;;;;;;;13.45;100.00;102126.59;7371444;19;20034;-70
2022/10/27 07:40:50;;;;;;;8.60;3.10;;;;;;;13.46;100.00;102121.34;7370678;19;20090;-70
2022/10/27 07:43:21;;;;;;;6.70;3.40;;;;;;;13.56;100.00;102111.88;7375408;19;20021;-70
2022/10/27 07:45:51;;;;;;;9.38;3.30;;;;;;;13.66;100.00;102108.56;7372079;19;20010;-70
2022/10/27 07:48:20;;;;;;;6.43;2.85;;;;;;;13.80;100.00;102114.13;7373157;19;20022;-70
2022/10/27 07:50:54;;;;;;;8.40;2.88;;;;;;;13.91;100.00;102110.84;7371311;19;20056;-70
2022/10/27 07:53:24;;;;;;;9.77;4.63;;;;;;;13.89;100.00;102115.19;7373790;19;20019;-70
2022/10/27 07:55:55;;;;;;;9.27;3.28;;;;;;;13.99;100.00;102113.63;7371152;19;20023;-70
2022/10/27 07:58:25;;;;;;;9.30;3.33;;;;;;;14.03;100.00;102104.91;7373496;19;20522;-70
2022/10/27 08:00:55;;;;;;;8.70;3.13;;;;;;;14.13;100.00;102105.97;7374173;19;20082;-70
2022/10/27 08:03:29;;;;;;;7.35;2.72;;;;;;;14.13;100.00;102112.16;7372145;19;20018;-70
2022/10/27 08:06:04;;;;;;;6.50;2.40;;;;;;;14.24;100.00;102104.44;7376251;19;20031;-69
2022/10/27 08:08:34;;;;;;;6.88;3.00;;;;;;;14.36;100.00;102109.94;7374356;19;20081;-69
2022/10/27 08:11:04;;;;;;;5.88;2.90;;;;;;;14.47;100.00;102105.75;7377436;19;20021;-69
2022/10/27 08:13:33;;;;;;;8.35;2.90;;;;;;;14.55;100.00;102104.16;7370753;19;20014;-69
2022/10/27 08:16:03;;;;;;;8.57;2.72;;;;;;;14.60;100.00;102104.19;7372936;19;20010;-69
2022/10/27 08:18:32;;;;;;;7.03;2.63;;;;;;;14.71;100.00;102099.97;7377293;19;20010;-72
2022/10/27 08:21:05;;;;;;;7.65;2.70;;;;;;;14.76;100.00;102098.31;7373527;19;20018;-72
2022/10/27 08:23:35;;;;;;;7.97;2.50;;;;;;;14.84;100.00;102101.94;7372421;19;20378;-72
2022/10/27 08:26:04;;;;;;;6.85;2.33;;;;;;;14.93;100.00;102103.84;7373829;19;20015;-72
2022/10/27 08:28:34;;;;;;;6.93;2.42;;;;;;;15.04;100.00;102105.78;7369196;19;20022;-72
2022/10/27 08:31:04;;;;;;;3.00;2.10;;;;;;;15.14;100.00;102087.44;7374085;19;20025;-72
2022/10/27 08:33:33;;;;;;;5.03;2.40;;;;;;;15.17;100.00;102085.72;7371844;19;20018;-72
2022/10/27 08:36:06;;;;;;;4.22;2.10;;;;;;;15.27;100.00;102089.38;7371516;19;20499;-72
2022/10/27 08:38:37;;;;;;;6.97;2.20;;;;;;;15.31;100.00;102073.59;7377831;19;20036;-72
2022/10/27 08:41:25;;;;;;;5.50;2.08;;;;;;;15.38;100.00;102074.56;7374507;19;20018;-72
2022/10/27 08:44:16;;;;;;;4.65;2.10;;;;;;;15.45;100.00;102067.59;7376626;19;20015;-72
2022/10/27 08:46:49;;;;;;;4.93;2.03;;;;;;;15.53;100.00;102066.81;7374946;19;20511;-72
2022/10/27 08:49:36;;;;;;;4.15;2.40;;;;;;;15.57;100.00;102066.03;7375947;19;20010;-72
2022/10/27 08:52:23;;;;;;;6.57;2.65;;;;;;;15.63;100.00;102062.53;7378527;19;20003;-73
2022/10/27 08:54:57;;;;;;;8.45;3.03;;;;;;;15.63;100.00;102046.66;7382053;19;20018;-69
2022/10/27 08:57:29;;;;;;;5.45;2.20;;;;;;;15.69;100.00;102062.59;7379500;19;20014;-69
2022/10/27 09:00:00;;;;;;;6.07;2.13;;;;;;;15.79;100.00;102058.31;7378574;19;20053;-69
2022/10/27 09:02:53;;;;;;;4.78;2.10;;;;;;;15.82;100.00;102063.63;7380450;19;20018;-69
2022/10/27 09:05:52;;;;;;;4.90;1.80;;;;;;;15.90;100.00;102061.97;7376156;19;20812;-73
2022/10/27 09:08:31;;;;;;;5.03;2.40;;;;;;;15.92;100.00;102066.41;7377965;19;20074;-73
2022/10/27 09:11:08;;;;;;;5.03;2.28;;;;;;;15.97;100.00;102069.97;7379189;19;20029;-73
2022/10/27 09:13:58;;;;;;;4.18;1.90;;;;;;;15.99;100.00;102065.59;7378704;19;20019;-73
2022/10/27 09:16:38;;;;;;;5.32;2.20;;;;;;;16.04;100.00;102065.66;7374940;19;20816;-73
2022/10/27 09:19:13;;;;;;;3.83;1.60;;;;;;;16.14;100.00;102063.97;7377376;19;20010;-73
2022/10/27 09:21:45;;;;;;;3.70;1.85;;;;;;;16.29;100.00;102061.47;7379777;19;20474;-73
2022/10/27 09:24:21;;;;;;;4.82;2.10;;;;;;;16.40;100.00;102056.28;7376375;19;20022;-73
2022/10/27 09:26:51;;;;;;;4.53;1.92;;;;;;;16.56;100.00;102056.41;7373218;19;20015;-73
2022/10/27 09:29:23;;;;;;;5.63;2.28;;;;;;;16.77;100.00;102045.09;7380203;19;20025;-72
2022/10/27 09:31:56;;;;;;;6.07;2.10;;;;;;;16.98;100.00;102039.06;7375747;19;20014;-72
2022/10/27 09:34:29;;;;;;;7.18;2.25;;;;;;;17.16;100.00;102033.84;7377093;19;20135;-72
2022/10/27 09:36:59;;;;;;;5.85;1.95;;;;;;;17.34;100.00;102033.06;7373300;19;20033;-72
2022/10/27 09:39:31;;;;;;;7.32;2.10;;;;;;;17.27;100.00;102040.09;7374356;19;20002;-72
2022/10/27 09:42:01;;;;;;;4.55;1.73;;;;;;;17.28;100.00;102019.78;7375491;19;20021;-72
2022/10/27 09:44:33;;;;;;;6.07;2.15;;;;;;;17.30;100.00;102015.38;7379277;19;20018;-73
2022/10/27 09:47:02;;;;;;;7.78;2.20;;;;;;;17.24;100.00;102016.22;7380068;19;20018;-68
2022/10/27 09:49:36;;;;;;;6.03;2.05;;;;;;;17.18;100.00;102020.63;7378633;19;20018;-68
2022/10/27 09:52:12;;;;;;;6.63;2.20;;;;;;;17.12;100.00;102009.97;7374675;19;20021;-69
2022/10/27 09:54:52;;;;;;;8.02;2.30;;;;;;;17.11;100.00;102013.50;7370721;19;20014;-69
2022/10/27 09:57:28;;;;;;;6.25;2.08;;;;;;;17.13;100.00;102006.44;7374624;19;20014;-69
2022/10/27 09:59:58;;;;;;;;;;;;;;;17.10;100.00;102001.13;7373442;19;20011;-69
2022/10/27 10:02:31;;;;;;;5.43;2.28;;;;;;;17.11;100.00;102003.78;7374198;19;19938;-68
2022/10/27 10:05:03;;;;;;;6.50;2.17;;;;;;;17.19;100.00;102009.13;7374950;19;20011;-70
2022/10/27 10:07:36;;;;;;;6.68;2.80;;;;;;;17.18;100.00;102005.59;7375370;19;20094;-69
2022/10/27 10:10:19;;;;;;;7.63;1.85;;;;;;;17.24;100.00;101995.00;7372339;19;20014;-69
2022/10/27 10:13:11;;;;;;;7.63;2.20;;;;;;;17.25;100.00;101999.44;7377635;19;20014;-69
2022/10/27 10:15:43;;;;;;;6.68;2.10;;;;;;;17.31;100.00;101995.94;7379204;19;20019;-69
2022/10/27 10:18:26;;;;;;;6.35;2.15;;;;;;;17.27;100.00;102010.06;7377006;19;20015;-69
2022/10/27 10:21:02;;;;;;;6.40;2.25;;;;;;;17.31;100.00;101996.81;7374564;19;20010;-69
2022/10/27 10:23:34;;;;;;;6.60;2.25;;;;;;;17.29;100.00;101997.69;7377878;19;20010;-69
2022/10/27 10:26:17;;;;;;;5.18;2.08;;;;;;;17.33;100.00;101995.06;7377495;19;20015;-69
2022/10/27 10:28:49;;;;;;;5.85;2.28;;;;;;;17.35;100.00;102004.78;7378537;19;20014;-69
2022/10/27 10:31:25;;;;;;;7.05;2.30;;;;;;;17.31;100.00;102007.41;7378422;19;20029;-69
2022/10/27 10:34:03;;;;;;;4.97;2.10;;;;;;;17.39;100.00;102004.78;7381048;19;20026;-69
2022/10/27 10:36:37;;;;;;;5.45;2.60;;;;;;;17.48;100.00;101996.00;7373979;19;20017;-69
2022/10/27 10:39:24;;;;;;;8.50;2.30;;;;;;;17.53;100.00;102002.19;7373494;19;20015;-69
2022/10/27 10:42:19;;;;;;;5.40;2.17;;;;;;;17.57;100.00;101991.59;7375607;19;20014;-70
2022/10/27 10:45:09;;;;;;;4.20;1.80;;;;;;;17.69;100.00;101998.69;7380678;19;20055;-69
2022/10/27 10:47:39;;;;;;;5.70;2.15;;;;;;;17.76;100.00;101997.84;7379785;19;20039;-69
2022/10/27 10:50:15;;;;;;;6.97;2.58;;;;;;;17.84;100.00;101988.13;7379711;19;20018;-69
2022/10/27 10:52:51;;;;;;;5.53;2.17;;;;;;;17.81;100.00;101988.13;7375795;19;20014;-69
2022/10/27 10:55:26;;;;;;;7.65;2.83;;;;;;;17.69;100.00;101988.09;7376250;19;20014;-69
2022/10/27 10:58:00;;;;;;;6.32;2.10;;;;;;;17.70;100.00;101995.16;7373908;19;20007;-69
2022/10/27 11:00:30;;;;;;;5.40;2.40;;;;;;;17.67;100.00;101992.53;7375246;19;20015;-69
2022/10/27 11:03:03;;;;;;;6.13;2.15;;;;;;;17.65;100.00;101983.66;7376826;19;20045;-69
2022/10/27 11:05:36;;;;;;;6.97;2.80;;;;;;;17.64;100.00;101988.06;7377393;19;20013;-69
2022/10/27 11:08:07;;;;;;;12.95;2.55;;;;;;;17.57;100.00;101982.75;7380113;19;20496;-69
2022/10/27 11:10:41;;;;;;;5.70;3.50;;;;;;;17.57;100.00;101982.75;7380613;19;20014;-69
2022/10/27 11:13:20;;;;;;;6.38;2.75;;;;;;;17.54;100.00;101982.75;7380259;19;20014;-69
2022/10/27 11:15:54;;;;;;;4.50;2.30;;;;;;;17.54;100.00;101978.31;7376461;19;20347;-69
2022/10/27 11:18:26;;;;;;;4.68;2.83;;;;;;;17.59;100.00;101975.69;7380388;19;20031;-69
2022/10/27 11:21:00;;;;;;;5.43;2.28;;;;;;;17.56;100.00;101970.38;7381002;19;20015;-69
2022/10/27 11:23:37;;;;;;;8.57;2.35;;;;;;;17.62;100.00;101970.38;7378110;19;20026;-69
2022/10/27 11:26:07;;;;;;;7.15;2.47;;;;;;;17.62;100.00;101965.97;7380642;19;20010;-69
2022/10/27 11:28:51;;;;;;;8.38;2.90;;;;;;;17.55;100.00;101968.59;7379017;19;20017;-69
2022/10/27 11:31:26;;;;;;;8.60;3.08;;;;;;;17.52;100.00;101980.09;7377498;19;20010;-69
2022/10/27 11:34:01;;;;;;;7.03;2.60;;;;;;;17.56;100.00;101980.97;7375173;19;20014;-69
2022/10/27 11:36:40;;;;;;;7.75;2.40;;;;;;;17.51;100.00;101972.13;7377687;19;20014;-69
2022/10/27 11:39:12;;;;;;;5.15;2.30;;;;;;;17.55;100.00;101948.28;7377991;19;20015;-69
2022/10/27 11:41:47;;;;;;;11.95;4.22;;;;;;;17.67;100.00;101935.94;7377146;19;20098;-68